Weather at Allegheny County Airport

Public forecast

Using degrees Fahrenheit for public forecast. Weather courtesy of forecast.io.

Current aviation weather report (METAR) for Allegheny County Airport

2024/05/30 16:53 (retrieved 21 minutes ago)

KAGC 301653Z VRB06KT 10SM FEW055 18/04 A3013 RMK AO2 SLP206 T01780044

Aviation forecast (TAF) for Allegheny County Airport

2024/05/30 15:06 Ammendment (retrieved 2 hours ago)

TAF AMD KAGC 301505Z 3015/3112 34010KT P6SM SKC FM310200 33003KT P6SM SKC